Ludlow, United Kingdom
Current Conditions -  °F | °C
As of 4:50 AM on Saturday 20 Dec 2014 (Local Time) from EGOS Reporting Station
Few Clouds Few Clouds  
Wind Chill: 37°   Ceiling: Unl
Heat Index: 45°   Visibility: 6mi
Dew Point: 37°   Wind: 17mph
Humidity: 76%   Direction: 290°WNW
Pressure: 30.15"   Gusts: NA
Location:  52.37°N, 2.71°W
Report Text: EGOS 200450Z AUTO 29015KT 9999 FEW033/// 07/03 Q1021
Loading
Personal Weather Stations






























Interactive Weather Map New forecast layout! Learn more

10-Day Weather Forecast

Advertisements
Track Severe Weather on mobile